Time;durP1;ratioP1;P1;durP2;ratioP2;P2;SDS_P1;SDS_P2;PMS_P1;PMS_P2;Temp;Humidity;BMP_temperature;BMP_pressure;BME280_temperature;BME280_humidity;BME280_pressure;Samples;Min_cycle;Max_cycle;Signal;HPM_P1;HPM_P2
2024/04/10 00:02:22;;;;;;;;;;;;;;;;;;5445085;26;20383;-72
2024/04/10 00:04:48;;;;;;;;;;;;;;;;;;5472956;26;19935;-72
2024/04/10 00:07:17;;;;;;;;;;;;;;;;;;5479850;26;19931;-73
2024/04/10 00:09:43;;;;;;;;;;;;;;;;;;5481066;26;19940;-71
2024/04/10 00:12:12;;;;;;;;;;;;;;;;;;5478373;26;19960;-71
2024/04/10 00:14:38;;;;;;;;;;;;;;;;;;5446204;26;19928;-72
2024/04/10 00:17:06;;;;;;;;;;;;;;;;;;5446525;26;20378;-72
2024/04/10 00:19:33;;;;;;;;;;;;;;;;;;5446734;26;19928;-72
2024/04/10 00:22:03;;;;;;;;;;;;;;;;;;5446613;26;19928;-72
2024/04/10 00:24:29;;;;;;;;;;;;;;;;;;5452519;26;20393;-71
2024/04/10 00:26:58;;;;;;;;;;;;;;;;;;5479547;26;19963;-71
2024/04/10 00:29:24;;;;;;;;;;;;;;;;;;5481158;26;20024;-72
2024/04/10 00:31:53;;;;;;;;;;;;;;;;;;5477983;26;20256;-71
2024/04/10 00:34:19;;;;;;;;;;;;;;;;;;5480583;26;19928;-71
2024/04/10 00:36:48;;;;;;;;;;;;;;;;;;5480711;26;19928;-72
2024/04/10 00:39:15;;;;;;;;;;;;;;;;;;5456967;26;20455;-71
2024/04/10 00:41:43;;;;;;;;;;;;;;;;;;5444213;26;19935;-72
2024/04/10 00:44:09;;;;;;;;;;;;;;;;;;5444078;26;20376;-71
2024/04/10 00:46:38;;;;;;;;;;;;;;;;;;5445421;26;20005;-72
2024/04/10 00:49:04;;;;;;;;;;;;;;;;;;5446378;26;20383;-71
2024/04/10 00:51:33;;;;;;;;;;;;;;;;;;5446268;26;20279;-71
2024/04/10 00:53:59;;;;;;;;;;;;;;;;;;5446197;26;19929;-71
2024/04/10 00:56:28;;;;;;;;;;;;;;;;;;5446899;26;20523;-71
2024/04/10 00:58:54;;;;;;;;;;;;;;;;;;5445905;26;19929;-71
2024/04/10 01:01:23;;;;;;;;;;;;;;;;;;5454085;26;20267;-71
2024/04/10 01:03:49;;;;;;;;;;;;;;;;;;5480540;26;19932;-71
2024/04/10 01:06:18;;;;;;;;;;;;;;;;;;5480214;26;19936;-71
2024/04/10 01:08:44;;;;;;;;;;;;;;;;;;5480274;26;19928;-71
2024/04/10 01:11:13;;;;;;;;;;;;;;;;;;5460135;26;19929;-71
2024/04/10 01:13:39;;;;;;;;;;;;;;;;;;5444821;26;19928;-71
2024/04/10 01:16:08;;;;;;;;;;;;;;;;;;5443548;26;19935;-71
2024/04/10 01:18:34;;;;;;;;;;;;;;;;;;5443639;26;19936;-72
2024/04/10 01:21:02;;;;;;;;;;;;;;;;;;5443519;26;20417;-71
2024/04/10 01:23:28;;;;;;;;;;;;;;;;;;5444429;26;19928;-71
2024/04/10 01:25:57;;;;;;;;;;;;;;;;;;5445299;26;19936;-71
2024/04/10 01:28:23;;;;;;;;;;;;;;;;;;5445097;26;20497;-72
2024/04/10 01:30:52;;;;;;;;;;;;;;;;;;5457120;26;19927;-71
2024/04/10 01:33:18;;;;;;;;;;;;;;;;;;5483552;26;19927;-71
2024/04/10 01:35:47;;;;;;;;;;;;;;;;;;5482890;26;19934;-71
2024/04/10 01:38:13;;;;;;;;;;;;;;;;;;5460586;26;20497;-71
2024/04/10 01:40:42;;;;;;;;;;;;;;;;;;5447735;26;19928;-71
2024/04/10 01:43:08;;;;;;;;;;;;;;;;;;5446783;26;20009;-71
2024/04/10 01:45:38;;;;;;;;;;;;;;;;;;5446918;26;19928;-71
2024/04/10 01:48:04;;;;;;;;;;;;;;;;;;5447715;26;19928;-71
2024/04/10 01:50:33;;;;;;;;;;;;;;;;;;5447037;26;20362;-72
2024/04/10 01:52:59;;;;;;;;;;;;;;;;;;5446595;26;19935;-72
2024/04/10 01:55:27;;;;;;;;;;;;;;;;;;5446509;26;20381;-71
2024/04/10 01:57:54;;;;;;;;;;;;;;;;;;5446562;26;19936;-71
2024/04/10 02:00:24;;;;;;;;;;;;;;;;;;5459842;26;19928;-71
2024/04/10 02:02:50;;;;;;;;;;;;;;;;;;5484884;26;19932;-72
2024/04/10 02:05:19;;;;;;;;;;;;;;;;;;5483423;26;19995;-72
2024/04/10 02:07:45;;;;;;;;;;;;;;;;;;5482975;26;20000;-72
2024/04/10 02:10:14;;;;;;;;;;;;;;;;;;5453843;26;19943;-72
2024/04/10 02:12:40;;;;;;;;;;;;;;;;;;5446705;26;19929;-71
2024/04/10 02:15:09;;;;;;;;;;;;;;;;;;5446719;26;19940;-72
2024/04/10 02:17:35;;;;;;;;;;;;;;;;;;5445632;26;19933;-72
2024/04/10 02:20:05;;;;;;;;;;;;;;;;;;5446433;26;19935;-72
2024/04/10 02:22:31;;;;;;;;;;;;;;;;;;5447146;26;19928;-72
2024/04/10 02:25:00;;;;;;;;;;;;;;;;;;5460784;26;19932;-72
2024/04/10 02:27:26;;;;;;;;;;;;;;;;;;5484015;26;19964;-73
2024/04/10 02:29:55;;;;;;;;;;;;;;;;;;5484867;26;19942;-72
2024/04/10 02:32:21;;;;;;;;;;;;;;;;;;5483505;26;19934;-72
2024/04/10 02:34:50;;;;;;;;;;;;;;;;;;5482496;26;19928;-71
2024/04/10 02:37:16;;;;;;;;;;;;;;;;;;5482626;26;19928;-72
2024/04/10 02:39:45;;;;;;;;;;;;;;;;;;5480906;26;19943;-72
2024/04/10 02:42:11;;;;;;;;;;;;;;;;;;5482103;26;19995;-72
2024/04/10 02:44:39;;;;;;;;;;;;;;;;;;5481929;26;19939;-71
2024/04/10 02:47:06;;;;;;;;;;;;;;;;;;5482143;26;19935;-72
2024/04/10 02:49:34;;;;;;;;;;;;;;;;;;5481404;26;19928;-71
2024/04/10 02:52:01;;;;;;;;;;;;;;;;;;5482316;26;19996;-71
2024/04/10 02:54:29;;;;;;;;;;;;;;;;;;5482371;26;20268;-71
2024/04/10 02:56:55;;;;;;;;;;;;;;;;;;5480871;26;19940;-71
2024/04/10 02:59:24;;;;;;;;;;;;;;;;;;5463898;26;19929;-71
2024/04/10 03:01:51;;;;;;;;;;;;;;;;;;5473532;26;19939;-72
2024/04/10 03:04:20;;;;;;;;;;;;;;;;;;5481991;26;19935;-72
2024/04/10 03:06:46;;;;;;;;;;;;;;;;;;5475499;26;19928;-72
2024/04/10 03:09:14;;;;;;;;;;;;;;;;;;5445412;26;19935;-71
2024/04/10 03:11:40;;;;;;;;;;;;;;;;;;5445663;26;20008;-71
2024/04/10 03:14:10;;;;;;;;;;;;;;;;;;5446734;26;19928;-71
2024/04/10 03:16:36;;;;;;;;;;;;;;;;;;5445567;26;19960;-71
2024/04/10 03:19:05;;;;;;;;;;;;;;;;;;5445359;26;19972;-72
2024/04/10 03:21:31;;;;;;;;;;;;;;;;;;5448418;26;19935;-71
2024/04/10 03:24:00;;;;;;;;;;;;;;;;;;5481619;26;20447;-72
2024/04/10 03:26:26;;;;;;;;;;;;;;;;;;5473170;26;19995;-72
2024/04/10 03:28:54;;;;;;;;;;;;;;;;;;5482690;26;20418;-72
2024/04/10 03:31:21;;;;;;;;;;;;;;;;;;5480870;26;19932;-72
2024/04/10 03:33:49;;;;;;;;;;;;;;;;;;5481609;26;19934;-71
2024/04/10 03:36:15;;;;;;;;;;;;;;;;;;5481941;26;19951;-72
2024/04/10 03:38:45;;;;;;;;;;;;;;;;;;5482334;26;19952;-72
2024/04/10 03:41:11;;;;;;;;;;;;;;;;;;5481628;26;19928;-72
2024/04/10 03:43:40;;;;;;;;;;;;;;;;;;5481836;26;19935;-72
2024/04/10 03:46:11;;;;;;;;;;;;;;;;;;5481666;26;20391;-72
2024/04/10 03:48:37;;;;;;;;;;;;;;;;;;5483846;26;19927;-70
2024/04/10 03:51:06;;;;;;;;;;;;;;;;;;5486155;26;20419;-71
2024/04/10 03:53:35;;;;;;;;;;;;;;;;;;5485214;26;19928;-73
2024/04/10 03:56:01;;;;;;;;;;;;;;;;;;5485073;26;19928;-72
2024/04/10 03:58:30;;;;;;;;;;;;;;;;;;5456664;26;19978;-71
2024/04/10 04:00:56;;;;;;;;;;;;;;;;;;5478277;26;19939;-72
2024/04/10 04:03:24;;;;;;;;;;;;;;;;;;5476998;26;19928;-72
2024/04/10 04:05:50;;;;;;;;;;;;;;;;;;5445168;26;20426;-72
2024/04/10 04:08:20;;;;;;;;;;;;;;;;;;5444553;26;19928;-72
2024/04/10 04:10:46;;;;;;;;;;;;;;;;;;5444784;26;20479;-71
2024/04/10 04:13:15;;;;;;;;;;;;;;;;;;5444956;26;19937;-72
2024/04/10 04:15:41;;;;;;;;;;;;;;;;;;5444642;26;19997;-71
2024/04/10 04:18:10;;;;;;;;;;;;;;;;;;5444368;26;19936;-72
2024/04/10 04:20:36;;;;;;;;;;;;;;;;;;5445929;26;20232;-72
2024/04/10 04:25:00;;;;;;;;;;;;;;;;;;5575523;25;20364;-72
2024/04/10 04:27:32;;;;;;;;;;;;;;;;;;5575936;25;19937;-71
2024/04/10 04:30:01;;;;;;;;;;;;;;;;;;5570667;25;19955;-71
2024/04/10 04:32:27;;;;;;;;;;;;;;;;;;5538914;25;20383;-73
2024/04/10 04:34:56;;;;;;;;;;;;;;;;;;5538550;25;20271;-72
2024/04/10 04:37:22;;;;;;;;;;;;;;;;;;5536738;25;19928;-72
2024/04/10 04:39:51;;;;;;;;;;;;;;;;;;5536668;25;19939;-71
2024/04/10 04:42:17;;;;;;;;;;;;;;;;;;5536894;25;20367;-71
2024/04/10 04:44:46;;;;;;;;;;;;;;;;;;5536469;25;20020;-72
2024/04/10 04:47:12;;;;;;;;;;;;;;;;;;5536671;25;19938;-71
2024/04/10 04:49:41;;;;;;;;;;;;;;;;;;5536420;25;19935;-71
2024/04/10 04:52:07;;;;;;;;;;;;;;;;;;5536625;25;20386;-70
2024/04/10 04:54:35;;;;;;;;;;;;;;;;;;5534915;25;19927;-71
2024/04/10 04:57:02;;;;;;;;;;;;;;;;;;5535697;25;19927;-71
2024/04/10 04:59:31;;;;;;;;;;;;;;;;;;5538039;25;19928;-71
2024/04/10 05:01:57;;;;;;;;;;;;;;;;;;5536424;25;19935;-71
2024/04/10 05:07:08;;;;;;;;;;;;;;;;;;5504657;25;19934;-72
2024/04/10 05:09:36;;;;;;;;;;;;;;;;;;5536140;25;19934;-71
2024/04/10 05:12:02;;;;;;;;;;;;;;;;;;5534980;25;19942;-71
2024/04/10 05:14:31;;;;;;;;;;;;;;;;;;5535647;25;20390;-70
2024/04/10 05:16:57;;;;;;;;;;;;;;;;;;5536008;25;19927;-71
2024/04/10 05:19:26;;;;;;;;;;;;;;;;;;5536561;25;20370;-71
2024/04/10 05:21:52;;;;;;;;;;;;;;;;;;5535959;25;19927;-72
2024/04/10 05:24:23;;;;;;;;;;;;;;;;;;5500803;26;19928;-72
2024/04/10 05:26:49;;;;;;;;;;;;;;;;;;5498934;26;19928;-70
2024/04/10 05:29:18;;;;;;;;;;;;;;;;;;5480328;26;20486;-71
2024/04/10 05:31:44;;;;;;;;;;;;;;;;;;5461764;26;19939;-71
2024/04/10 05:34:13;;;;;;;;;;;;;;;;;;5458520;26;20028;-71
2024/04/10 05:36:39;;;;;;;;;;;;;;;;;;5446111;26;19933;-72
2024/04/10 05:39:08;;;;;;;;;;;;;;;;;;5446519;26;20502;-71
2024/04/10 05:41:34;;;;;;;;;;;;;;;;;;5446312;26;19932;-73
2024/04/10 05:44:02;;;;;;;;;;;;;;;;;;5446662;26;19935;-72
2024/04/10 05:46:31;;;;;;;;;;;;;;;;;;5449465;26;19933;-71
2024/04/10 05:49:00;;;;;;;;;;;;;;;;;;5447479;26;19928;-71
2024/04/10 05:51:26;;;;;;;;;;;;;;;;;;5446318;26;19932;-71
2024/04/10 05:53:55;;;;;;;;;;;;;;;;;;5463602;26;20375;-72
2024/04/10 05:56:21;;;;;;;;;;;;;;;;;;5482604;26;19935;-71
2024/04/10 05:58:49;;;;;;;;;;;;;;;;;;5482464;26;19943;-72
2024/04/10 06:01:15;;;;;;;;;;;;;;;;;;5482116;26;20050;-71
2024/04/10 06:03:44;;;;;;;;;;;;;;;;;;5458233;26;19971;-71
2024/04/10 06:06:12;;;;;;;;;;;;;;;;;;5447844;26;19928;-72
2024/04/10 06:08:41;;;;;;;;;;;;;;;;;;5448313;26;20011;-71
2024/04/10 06:11:07;;;;;;;;;;;;;;;;;;5448963;26;19928;-71
2024/04/10 06:13:36;;;;;;;;;;;;;;;;;;5447932;26;19936;-71
2024/04/10 06:16:02;;;;;;;;;;;;;;;;;;5446590;26;19928;-73
2024/04/10 06:18:30;;;;;;;;;;;;;;;;;;5446103;26;20267;-72
2024/04/10 06:20:56;;;;;;;;;;;;;;;;;;5446612;26;19936;-71
2024/04/10 06:23:25;;;;;;;;;;;;;;;;;;5445484;26;20446;-72
2024/04/10 06:25:51;;;;;;;;;;;;;;;;;;5445518;26;19932;-71
2024/04/10 06:28:20;;;;;;;;;;;;;;;;;;5444671;26;20519;-71
2024/04/10 06:30:46;;;;;;;;;;;;;;;;;;5446438;26;20036;-72
2024/04/10 06:33:15;;;;;;;;;;;;;;;;;;5466680;26;19936;-71
2024/04/10 06:35:41;;;;;;;;;;;;;;;;;;5482080;26;20359;-71
2024/04/10 06:38:10;;;;;;;;;;;;;;;;;;5483159;26;19932;-71
2024/04/10 06:40:36;;;;;;;;;;;;;;;;;;5482268;26;20264;-71
2024/04/10 06:43:04;;;;;;;;;;;;;;;;;;5482020;26;20069;-71
2024/04/10 06:45:30;;;;;;;;;;;;;;;;;;5481713;26;19928;-70
2024/04/10 06:47:59;;;;;;;;;;;;;;;;;;5481463;26;19927;-71
2024/04/10 06:50:26;;;;;;;;;;;;;;;;;;5481536;26;19927;-70
2024/04/10 06:52:54;;;;;;;;;;;;;;;;;;5481919;26;19939;-70
2024/04/10 06:55:20;;;;;;;;;;;;;;;;;;5481049;26;19928;-71
2024/04/10 06:57:49;;;;;;;;;;;;;;;;;;5483018;26;19978;-71
2024/04/10 07:00:16;;;;;;;;;;;;;;;;;;5483676;26;19935;-71
2024/04/10 07:02:47;;;;;;;;;;;;;;;;;;5483745;26;20078;-71
2024/04/10 07:05:13;;;;;;;;;;;;;;;;;;5482048;26;19981;-72
2024/04/10 07:07:42;;;;;;;;;;;;;;;;;;5481359;26;20000;-72
2024/04/10 07:10:09;;;;;;;;;;;;;;;;;;5479926;26;19936;-72
2024/04/10 07:12:37;;;;;;;;;;;;;;;;;;5481605;26;20308;-72
2024/04/10 07:15:03;;;;;;;;;;;;;;;;;;5480837;26;20408;-72
2024/04/10 07:17:33;;;;;;;;;;;;;;;;;;5481073;26;20027;-72
2024/04/10 07:19:59;;;;;;;;;;;;;;;;;;5481191;26;19939;-71
2024/04/10 07:22:27;;;;;;;;;;;;;;;;;;5482065;26;19928;-72
2024/04/10 07:24:53;;;;;;;;;;;;;;;;;;5468670;26;19928;-72
2024/04/10 07:27:22;;;;;;;;;;;;;;;;;;5445289;26;19948;-72
2024/04/10 07:29:51;;;;;;;;;;;;;;;;;;5444684;26;19929;-72
2024/04/10 07:32:19;;;;;;;;;;;;;;;;;;5445224;26;20300;-72
2024/04/10 07:34:45;;;;;;;;;;;;;;;;;;5444948;26;20509;-73
2024/04/10 07:37:14;;;;;;;;;;;;;;;;;;5444506;26;19936;-72
2024/04/10 07:39:40;;;;;;;;;;;;;;;;;;5444959;26;19944;-72
2024/04/10 07:42:09;;;;;;;;;;;;;;;;;;5445932;26;20000;-72
2024/04/10 07:44:35;;;;;;;;;;;;;;;;;;5446779;26;19932;-72
2024/04/10 07:47:04;;;;;;;;;;;;;;;;;;5444472;26;20496;-73
2024/04/10 07:49:30;;;;;;;;;;;;;;;;;;5444219;26;20363;-73
2024/04/10 07:52:00;;;;;;;;;;;;;;;;;;5462173;26;19935;-72
2024/04/10 07:54:28;;;;;;;;;;;;;;;;;;5480632;26;19928;-72
2024/04/10 07:56:57;;;;;;;;;;;;;;;;;;5480632;26;19928;-72
2024/04/10 07:59:23;;;;;;;;;;;;;;;;;;5480296;26;19951;-72
2024/04/10 08:01:52;;;;;;;;;;;;;;;;;;5470627;26;19940;-71
2024/04/10 08:04:19;;;;;;;;;;;;;;;;;;5446048;26;19928;-72
2024/04/10 08:06:47;;;;;;;;;;;;;;;;;;5444289;26;20367;-71
2024/04/10 08:09:14;;;;;;;;;;;;;;;;;;5444044;26;19935;-72
2024/04/10 08:11:44;;;;;;;;;;;;;;;;;;5444470;26;19935;-73
2024/04/10 08:14:10;;;;;;;;;;;;;;;;;;5444047;26;19937;-72
2024/04/10 08:16:39;;;;;;;;;;;;;;;;;;5444280;26;19978;-71
2024/04/10 08:19:06;;;;;;;;;;;;;;;;;;5447254;26;20398;-72
2024/04/10 08:21:36;;;;;;;;;;;;;;;;;;5446163;26;19932;-72
2024/04/10 08:24:02;;;;;;;;;;;;;;;;;;5445339;26;19928;-72
2024/04/10 08:26:33;;;;;;;;;;;;;;;;;;5480345;26;19959;-72
2024/04/10 08:28:59;;;;;;;;;;;;;;;;;;5480103;26;19996;-72
2024/04/10 08:31:30;;;;;;;;;;;;;;;;;;5479894;26;19936;-72
2024/04/10 08:33:56;;;;;;;;;;;;;;;;;;5479533;26;19927;-72
2024/04/10 08:36:25;;;;;;;;;;;;;;;;;;5460173;26;19935;-72
2024/04/10 08:38:52;;;;;;;;;;;;;;;;;;5444464;26;19940;-72
2024/04/10 08:41:20;;;;;;;;;;;;;;;;;;5445639;26;19928;-72
2024/04/10 08:43:46;;;;;;;;;;;;;;;;;;5445624;26;19932;-72
2024/04/10 08:46:15;;;;;;;;;;;;;;;;;;5444448;26;20026;-72
2024/04/10 08:48:41;;;;;;;;;;;;;;;;;;5443014;26;19939;-72
2024/04/10 08:51:10;;;;;;;;;;;;;;;;;;5461090;26;19940;-72
2024/04/10 08:53:36;;;;;;;;;;;;;;;;;;5456589;26;20368;-73
2024/04/10 08:56:04;;;;;;;;;;;;;;;;;;5443559;26;20500;-73
2024/04/10 08:58:30;;;;;;;;;;;;;;;;;;5442998;26;20318;-73
2024/04/10 09:00:59;;;;;;;;;;;;;;;;;;5443470;26;19940;-73
2024/04/10 09:03:25;;;;;;;;;;;;;;;;;;5443789;26;19936;-73
2024/04/10 09:05:54;;;;;;;;;;;;;;;;;;5444929;26;20004;-73
2024/04/10 09:08:20;;;;;;;;;;;;;;;;;;5446635;26;19928;-74
2024/04/10 09:10:49;;;;;;;;;;;;;;;;;;5450261;26;19953;-73
2024/04/10 09:13:15;;;;;;;;;;;;;;;;;;5449255;26;19928;-73
2024/04/10 09:15:43;;;;;;;;;;;;;;;;;;5446977;26;19929;-73
2024/04/10 09:18:10;;;;;;;;;;;;;;;;;;5479086;26;20000;-73
2024/04/10 09:20:39;;;;;;;;;;;;;;;;;;5482951;26;19996;-73
2024/04/10 09:23:05;;;;;;;;;;;;;;;;;;5482681;26;19928;-73
2024/04/10 09:25:34;;;;;;;;;;;;;;;;;;5482753;26;19936;-73
2024/04/10 09:28:01;;;;;;;;;;;;;;;;;;5452251;26;19940;-73
2024/04/10 09:30:30;;;;;;;;;;;;;;;;;;5446918;26;19928;-73
2024/04/10 09:32:56;;;;;;;;;;;;;;;;;;5461842;26;19928;-72
2024/04/10 09:35:25;;;;;;;;;;;;;;;;;;5484355;26;19953;-73
2024/04/10 09:37:51;;;;;;;;;;;;;;;;;;5483586;26;19928;-73
2024/04/10 09:40:20;;;;;;;;;;;;;;;;;;5482840;26;19961;-73
2024/04/10 09:42:46;;;;;;;;;;;;;;;;;;5482795;26;20387;-73
2024/04/10 09:45:17;;;;;;;;;;;;;;;;;;5450206;26;19935;-73
2024/04/10 09:47:43;;;;;;;;;;;;;;;;;;5446317;26;19932;-73
2024/04/10 09:50:12;;;;;;;;;;;;;;;;;;5481684;26;19928;-73
2024/04/10 09:52:38;;;;;;;;;;;;;;;;;;5482833;26;19964;-73
2024/04/10 09:55:07;;;;;;;;;;;;;;;;;;5484246;26;20531;-73
2024/04/10 09:57:33;;;;;;;;;;;;;;;;;;5483248;26;19928;-72
2024/04/10 10:00:02;;;;;;;;;;;;;;;;;;5482535;26;19932;-72
2024/04/10 10:02:28;;;;;;;;;;;;;;;;;;5481859;26;19935;-72
2024/04/10 10:04:56;;;;;;;;;;;;;;;;;;5481654;26;20340;-72
2024/04/10 10:07:22;;;;;;;;;;;;;;;;;;5482138;26;19932;-72
2024/04/10 10:09:51;;;;;;;;;;;;;;;;;;5482190;26;19935;-71
2024/04/10 10:12:17;;;;;;;;;;;;;;;;;;5481591;26;20371;-72
2024/04/10 10:14:46;;;;;;;;;;;;;;;;;;5484421;26;20000;-72
2024/04/10 10:17:12;;;;;;;;;;;;;;;;;;5482120;26;19928;-72
2024/04/10 10:19:41;;;;;;;;;;;;;;;;;;5446110;26;19929;-72
2024/04/10 10:22:07;;;;;;;;;;;;;;;;;;5445482;26;19928;-73
2024/04/10 10:24:36;;;;;;;;;;;;;;;;;;5453739;26;19942;-72
2024/04/10 10:27:02;;;;;;;;;;;;;;;;;;5482196;26;19962;-72
2024/04/10 10:29:31;;;;;;;;;;;;;;;;;;5482228;26;20259;-72
2024/04/10 10:31:57;;;;;;;;;;;;;;;;;;5482577;26;19927;-71
2024/04/10 10:34:26;;;;;;;;;;;;;;;;;;5478691;26;19954;-71
2024/04/10 10:36:52;;;;;;;;;;;;;;;;;;5446382;26;19928;-72
2024/04/10 10:39:20;;;;;;;;;;;;;;;;;;5459555;26;20004;-72
2024/04/10 10:41:47;;;;;;;;;;;;;;;;;;5483978;26;20017;-72
2024/04/10 10:44:15;;;;;;;;;;;;;;;;;;5482466;26;19932;-72
2024/04/10 10:46:41;;;;;;;;;;;;;;;;;;5482130;26;19935;-72
2024/04/10 10:49:10;;;;;;;;;;;;;;;;;;5481932;26;20348;-72
2024/04/10 10:51:36;;;;;;;;;;;;;;;;;;5480259;26;19928;-72
2024/04/10 10:54:05;;;;;;;;;;;;;;;;;;5481891;26;19928;-71
2024/04/10 10:56:31;;;;;;;;;;;;;;;;;;5481741;26;19935;-70
2024/04/10 10:59:00;;;;;;;;;;;;;;;;;;5481712;26;20431;-71
2024/04/10 11:01:26;;;;;;;;;;;;;;;;;;5482142;26;20470;-71
2024/04/10 11:03:56;;;;;;;;;;;;;;;;;;5482907;26;19960;-71
2024/04/10 11:06:23;;;;;;;;;;;;;;;;;;5482235;26;19943;-71
2024/04/10 11:08:51;;;;;;;;;;;;;;;;;;5469361;26;20514;-71
2024/04/10 11:11:17;;;;;;;;;;;;;;;;;;5444712;26;19930;-70
2024/04/10 11:13:46;;;;;;;;;;;;;;;;;;5444339;26;20383;-71
2024/04/10 11:16:15;;;;;;;;;;;;;;;;;;5445363;26;19929;-71
2024/04/10 11:18:43;;;;;;;;;;;;;;;;;;5444773;26;20466;-72
2024/04/10 11:21:09;;;;;;;;;;;;;;;;;;5445988;26;19933;-71
2024/04/10 11:23:38;;;;;;;;;;;;;;;;;;5456865;26;20007;-71
2024/04/10 11:26:04;;;;;;;;;;;;;;;;;;5452632;26;19929;-71
2024/04/10 11:28:33;;;;;;;;;;;;;;;;;;5444600;26;20397;-70
2024/04/10 11:30:59;;;;;;;;;;;;;;;;;;5444919;26;19935;-70
2024/04/10 11:33:28;;;;;;;;;;;;;;;;;;5443486;26;19932;-71
2024/04/10 11:35:55;;;;;;;;;;;;;;;;;;5445194;26;19929;-71
2024/04/10 11:38:24;;;;;;;;;;;;;;;;;;5444965;26;19932;-71
2024/04/10 11:40:50;;;;;;;;;;;;;;;;;;5444256;26;19929;-70
2024/04/10 11:43:19;;;;;;;;;;;;;;;;;;5447578;26;19936;-71
2024/04/10 11:45:45;;;;;;;;;;;;;;;;;;5446666;26;20228;-69
2024/04/10 11:48:15;;;;;;;;;;;;;;;;;;5449841;26;19936;-71
2024/04/10 11:50:41;;;;;;;;;;;;;;;;;;5482931;26;19952;-71
2024/04/10 11:53:10;;;;;;;;;;;;;;;;;;5481099;26;19956;-70
2024/04/10 11:55:36;;;;;;;;;;;;;;;;;;5480759;26;19927;-70
2024/04/10 11:58:05;;;;;;;;;;;;;;;;;;5480386;26;20505;-71
2024/04/10 12:00:32;;;;;;;;;;;;;;;;;;5479368;26;20370;-71
2024/04/10 12:03:02;;;;;;;;;;;;;;;;;;5480810;26;19928;-71
2024/04/10 12:05:28;;;;;;;;;;;;;;;;;;5480318;26;19996;-71
2024/04/10 12:07:57;;;;;;;;;;;;;;;;;;5480030;26;20264;-71
2024/04/10 12:10:23;;;;;;;;;;;;;;;;;;5480471;26;20412;-71
2024/04/10 12:12:52;;;;;;;;;;;;;;;;;;5482139;26;19928;-72
2024/04/10 12:15:19;;;;;;;;;;;;;;;;;;5480681;26;19992;-72
2024/04/10 12:17:47;;;;;;;;;;;;;;;;;;5455007;26;19935;-72
2024/04/10 12:20:15;;;;;;;;;;;;;;;;;;5443867;26;19929;-72
2024/04/10 12:22:43;;;;;;;;;;;;;;;;;;5462078;26;20274;-72
2024/04/10 12:25:09;;;;;;;;;;;;;;;;;;5462793;26;19940;-72
2024/04/10 12:27:38;;;;;;;;;;;;;;;;;;5443122;26;20452;-71
2024/04/10 12:30:05;;;;;;;;;;;;;;;;;;5445158;26;20319;-72
2024/04/10 12:32:33;;;;;;;;;;;;;;;;;;5451082;26;19936;-71
2024/04/10 12:40:28;;;;;;;;;;;;;;;;;;5446171;26;19931;-72
2024/04/10 12:42:57;;;;;;;;;;;;;;;;;;5476337;26;19932;-72
2024/04/10 12:45:25;;;;;;;;;;;;;;;;;;5483784;26;19928;-71
2024/04/10 12:47:51;;;;;;;;;;;;;;;;;;5485282;26;19928;-72
2024/04/10 12:50:20;;;;;;;;;;;;;;;;;;5480606;26;20006;-72
2024/04/10 12:52:47;;;;;;;;;;;;;;;;;;5447016;26;19928;-72
2024/04/10 12:55:15;;;;;;;;;;;;;;;;;;5448129;26;19979;-72
2024/04/10 12:57:44;;;;;;;;;;;;;;;;;;5448803;26;19932;-72
2024/04/10 13:00:11;;;;;;;;;;;;;;;;;;5448621;26;20367;-72
2024/04/10 13:02:40;;;;;;;;;;;;;;;;;;5446735;26;19929;-71
2024/04/10 13:05:06;;;;;;;;;;;;;;;;;;5478787;26;19928;-72
2024/04/10 13:07:34;;;;;;;;;;;;;;;;;;5475260;26;20022;-72
2024/04/10 13:10:01;;;;;;;;;;;;;;;;;;5446631;26;19936;-71
2024/04/10 13:12:29;;;;;;;;;;;;;;;;;;5446339;26;19978;-72
2024/04/10 13:14:55;;;;;;;;;;;;;;;;;;5446847;26;19928;-72
2024/04/10 13:17:24;;;;;;;;;;;;;;;;;;5446925;26;20018;-72
2024/04/10 13:19:51;;;;;;;;;;;;;;;;;;5457456;26;19975;-71
2024/04/10 13:22:20;;;;;;;;;;;;;;;;;;5483724;26;20367;-72
2024/04/10 13:24:46;;;;;;;;;;;;;;;;;;5472150;26;19929;-71
2024/04/10 13:27:15;;;;;;;;;;;;;;;;;;5446195;26;19928;-72
2024/04/10 13:29:41;;;;;;;;;;;;;;;;;;5446161;26;20264;-72
2024/04/10 13:32:10;;;;;;;;;;;;;;;;;;5446292;26;19975;-71
2024/04/10 13:34:36;;;;;;;;;;;;;;;;;;5446534;26;19997;-72
2024/04/10 13:37:08;;;;;;;;;;;;;;;;;;5446972;26;19928;-72
2024/04/10 13:39:34;;;;;;;;;;;;;;;;;;5446553;26;19928;-72
2024/04/10 13:42:02;;;;;;;;;;;;;;;;;;5466957;26;19933;-72
2024/04/10 13:44:29;;;;;;;;;;;;;;;;;;5447646;26;19935;-72
2024/04/10 13:46:58;;;;;;;;;;;;;;;;;;5467825;26;20391;-72
2024/04/10 13:49:24;;;;;;;;;;;;;;;;;;5481890;26;19928;-72
2024/04/10 13:51:53;;;;;;;;;;;;;;;;;;5481646;26;19992;-72
2024/04/10 13:54:19;;;;;;;;;;;;;;;;;;5482420;26;19935;-72
2024/04/10 13:56:48;;;;;;;;;;;;;;;;;;5481390;26;19952;-72
2024/04/10 13:59:14;;;;;;;;;;;;;;;;;;5481327;26;19928;-71
2024/04/10 14:01:46;;;;;;;;;;;;;;;;;;5482402;26;19928;-72
2024/04/10 14:04:12;;;;;;;;;;;;;;;;;;5484085;26;19927;-72
2024/04/10 14:06:41;;;;;;;;;;;;;;;;;;5483846;26;19932;-72
2024/04/10 14:09:07;;;;;;;;;;;;;;;;;;5482656;26;19935;-71
2024/04/10 14:11:35;;;;;;;;;;;;;;;;;;5482149;26;19928;-72
2024/04/10 14:14:01;;;;;;;;;;;;;;;;;;5482589;26;20288;-71
2024/04/10 14:16:30;;;;;;;;;;;;;;;;;;5480740;26;20017;-72
2024/04/10 14:18:56;;;;;;;;;;;;;;;;;;5482085;26;20367;-72
2024/04/10 14:21:25;;;;;;;;;;;;;;;;;;5483300;26;19928;-71
2024/04/10 14:23:53;;;;;;;;;;;;;;;;;;5483320;26;20372;-72
2024/04/10 14:26:22;;;;;;;;;;;;;;;;;;5482495;26;19960;-72
2024/04/10 14:28:48;;;;;;;;;;;;;;;;;;5482121;26;20450;-71
2024/04/10 14:31:17;;;;;;;;;;;;;;;;;;5481816;26;20343;-71
2024/04/10 14:33:43;;;;;;;;;;;;;;;;;;5480817;26;19935;-67
2024/04/10 14:36:12;;;;;;;;;;;;;;;;;;5482126;26;19996;-68
2024/04/10 14:38:38;;;;;;;;;;;;;;;;;;5483938;26;20361;-68
2024/04/10 14:41:06;;;;;;;;;;;;;;;;;;5482727;26;19935;-69
2024/04/10 14:43:32;;;;;;;;;;;;;;;;;;5481441;26;20267;-67
2024/04/10 14:46:01;;;;;;;;;;;;;;;;;;5481524;26;19928;-71
2024/04/10 14:48:27;;;;;;;;;;;;;;;;;;5481936;26;20377;-72
2024/04/10 14:50:57;;;;;;;;;;;;;;;;;;5480954;26;20000;-72
2024/04/10 14:53:23;;;;;;;;;;;;;;;;;;5483267;26;20426;-72
2024/04/10 14:55:51;;;;;;;;;;;;;;;;;;5483232;26;20018;-72
2024/04/10 14:58:18;;;;;;;;;;;;;;;;;;5482380;26;19932;-72
2024/04/10 15:00:46;;;;;;;;;;;;;;;;;;5483966;26;19935;-72
2024/04/10 15:03:12;;;;;;;;;;;;;;;;;;5482267;26;19932;-72
2024/04/10 15:05:41;;;;;;;;;;;;;;;;;;5481657;26;19928;-72
2024/04/10 15:08:07;;;;;;;;;;;;;;;;;;5448315;26;19940;-72
2024/04/10 15:10:36;;;;;;;;;;;;;;;;;;5446735;26;20033;-72
2024/04/10 15:13:02;;;;;;;;;;;;;;;;;;5446098;26;19929;-72
2024/04/10 15:15:32;;;;;;;;;;;;;;;;;;5445245;26;19929;-71
2024/04/10 15:17:58;;;;;;;;;;;;;;;;;;5444712;26;19936;-72
2024/04/10 15:20:27;;;;;;;;;;;;;;;;;;5444772;26;20488;-72
2024/04/10 15:22:53;;;;;;;;;;;;;;;;;;5446036;26;19941;-72
2024/04/10 15:25:22;;;;;;;;;;;;;;;;;;5466424;26;19928;-72
2024/04/10 15:27:48;;;;;;;;;;;;;;;;;;5482901;26;19939;-72
2024/04/10 15:30:16;;;;;;;;;;;;;;;;;;5481447;26;19932;-72
2024/04/10 15:32:42;;;;;;;;;;;;;;;;;;5480854;26;19935;-72
2024/04/10 15:35:11;;;;;;;;;;;;;;;;;;5481208;26;20007;-72
2024/04/10 15:37:37;;;;;;;;;;;;;;;;;;5481023;26;19939;-72
2024/04/10 15:40:09;;;;;;;;;;;;;;;;;;5480120;26;20005;-72
2024/04/10 15:42:35;;;;;;;;;;;;;;;;;;5445432;26;19980;-72
2024/04/10 15:45:03;;;;;;;;;;;;;;;;;;5478623;26;19967;-71
2024/04/10 15:47:29;;;;;;;;;;;;;;;;;;5480868;26;19928;-72
2024/04/10 15:49:58;;;;;;;;;;;;;;;;;;5481210;26;20513;-72
2024/04/10 15:52:24;;;;;;;;;;;;;;;;;;5481011;26;19928;-71
2024/04/10 15:54:53;;;;;;;;;;;;;;;;;;5480605;26;19928;-71
2024/04/10 15:57:19;;;;;;;;;;;;;;;;;;5475661;26;19935;-72
2024/04/10 15:59:48;;;;;;;;;;;;;;;;;;5445419;26;19935;-71
2024/04/10 16:02:14;;;;;;;;;;;;;;;;;;5445530;26;19947;-72
2024/04/10 16:04:43;;;;;;;;;;;;;;;;;;5444010;26;19960;-71
2024/04/10 16:07:09;;;;;;;;;;;;;;;;;;5444457;26;19928;-72
2024/04/10 16:09:37;;;;;;;;;;;;;;;;;;5444358;26;19928;-71
2024/04/10 16:12:04;;;;;;;;;;;;;;;;;;5460914;26;19928;-72
2024/04/10 16:14:32;;;;;;;;;;;;;;;;;;5478785;26;20005;-72
2024/04/10 16:16:59;;;;;;;;;;;;;;;;;;5482207;26;19931;-72
2024/04/10 16:19:28;;;;;;;;;;;;;;;;;;5480108;26;19939;-72
2024/04/10 16:21:54;;;;;;;;;;;;;;;;;;5480589;26;19932;-72
2024/04/10 16:24:23;;;;;;;;;;;;;;;;;;5479686;26;19935;-71
2024/04/10 16:26:49;;;;;;;;;;;;;;;;;;5480068;26;19932;-71
2024/04/10 16:29:17;;;;;;;;;;;;;;;;;;5480206;26;20487;-71
2024/04/10 16:31:44;;;;;;;;;;;;;;;;;;5479148;26;20363;-72
2024/04/10 16:34:12;;;;;;;;;;;;;;;;;;5481740;26;20000;-72
2024/04/10 16:36:38;;;;;;;;;;;;;;;;;;5480002;26;20326;-71
2024/04/10 16:39:07;;;;;;;;;;;;;;;;;;5480386;26;20139;-71
2024/04/10 16:41:33;;;;;;;;;;;;;;;;;;5479679;26;20047;-71
2024/04/10 16:44:02;;;;;;;;;;;;;;;;;;5479875;26;20359;-71
2024/04/10 16:46:28;;;;;;;;;;;;;;;;;;5480167;26;19935;-71
2024/04/10 16:48:57;;;;;;;;;;;;;;;;;;5479983;26;20406;-72
2024/04/10 16:51:23;;;;;;;;;;;;;;;;;;5481749;26;20336;-71
2024/04/10 16:53:53;;;;;;;;;;;;;;;;;;5481038;26;19932;-72
2024/04/10 16:56:19;;;;;;;;;;;;;;;;;;5480515;26;19928;-72
2024/04/10 16:58:48;;;;;;;;;;;;;;;;;;5480607;26;19934;-71